Gwynn Oak, Maryland
Current Conditions -  °F | °C
As of 9:54 PM on Friday 24 Oct 2014 (Local Time) from KBWI Reporting Station
Scattered Clouds Scattered Clouds  
Wind Chill: 13°   Ceiling: Unl
Heat Index: 13°   Visibility: 10mi
Dew Point:   Wind: 7mph
Humidity: 47%   Direction: 300°WNW
Pressure: 29.93"   Gusts: NA
Location:  39.32°N, 76.73°W
Report Text: KBWI 250154Z 30006KT 10SM SCT200 SCT250 13/02 A2993 RMK AO2 SLP133 T01330022
Loading
Personal Weather Stations






























Interactive Weather Map
Tropical Storm Tracking
New forecast layout! Learn more

10-Day Weather Forecast

Advertisements
Track Severe Weather on mobile